Time;durP1;ratioP1;P1;durP2;ratioP2;P2;SDS_P1;SDS_P2;PMS_P1;PMS_P2;Temp;Humidity;BMP_temperature;BMP_pressure;BME280_temperature;BME280_humidity;BME280_pressure;Samples;Min_cycle;Max_cycle;Signal;HPM_P1;HPM_P2
2023/06/05 00:01:46;;;;;;;4.45;1.08;;;25.10;42.60;;;;;;5046153;28;20029;-67
2023/06/05 00:04:12;;;;;;;3.28;1.00;;;25.00;43.20;;;;;;5078037;28;20041;-67
2023/06/05 00:06:39;;;;;;;3.50;1.17;;;25.00;43.50;;;;;;5051588;28;20399;-68
2023/06/05 00:09:06;;;;;;;2.67;1.08;;;25.00;43.50;;;;;;5071292;28;20033;-67
2023/06/05 00:11:32;;;;;;;1.20;1.05;;;25.10;43.50;;;;;;5064430;28;20472;-67
2023/06/05 00:13:58;;;;;;;2.83;1.25;;;25.10;43.80;;;;;;5060715;28;20493;-67
2023/06/05 00:16:24;;;;;;;1.52;1.00;;;25.10;44.00;;;;;;5064549;28;20028;-68
2023/06/05 00:18:50;;;;;;;1.40;0.80;;;25.20;44.00;;;;;;5071223;28;20063;-67
2023/06/05 00:21:16;;;;;;;0.98;0.90;;;25.20;44.00;;;;;;5058387;28;20086;-67
2023/06/05 00:23:43;;;;;;;1.67;1.10;;;25.00;44.10;;;;;;5060374;28;20037;-67
2023/06/05 00:26:09;;;;;;;1.52;1.42;;;25.10;44.20;;;;;;5056795;28;21370;-67
2023/06/05 00:28:35;;;;;;;2.17;0.90;;;25.20;44.10;;;;;;5066213;28;20098;-68
2023/06/05 00:31:02;;;;;;;0.88;0.85;;;25.00;44.10;;;;;;5054167;28;20037;-67
2023/06/05 00:33:30;;;;;;;1.17;1.02;;;25.20;43.70;;;;;;5057549;28;20399;-67
2023/06/05 00:35:57;;;;;;;1.88;1.48;;;25.10;43.80;;;;;;5053231;28;20428;-68
2023/06/05 00:38:25;;;;;;;1.33;0.90;;;25.10;43.90;;;;;;5069267;28;20494;-66
2023/06/05 00:40:51;;;;;;;1.50;1.02;;;25.10;44.10;;;;;;5056334;28;20037;-67
2023/06/05 00:43:18;;;;;;;4.78;1.48;;;25.10;44.30;;;;;;5050314;28;20056;-68
2023/06/05 00:45:44;;;;;;;1.17;0.98;;;25.00;44.40;;;;;;5058777;28;20061;-68
2023/06/05 00:48:10;;;;;;;1.95;1.20;;;25.00;44.40;;;;;;5072751;28;20071;-67
2023/06/05 00:50:37;;;;;;;3.22;1.00;;;25.00;44.30;;;;;;5058216;28;20044;-67
2023/06/05 00:53:05;;;;;;;1.45;1.33;;;24.90;44.40;;;;;;5083355;28;20104;-67
2023/06/05 00:55:32;;;;;;;1.35;1.10;;;24.90;44.50;;;;;;5070637;28;20075;-66
2023/06/05 00:58:00;;;;;;;3.17;1.10;;;24.90;44.60;;;;;;5074176;28;20531;-67
2023/06/05 01:00:27;;;;;;;1.10;0.95;;;25.00;44.60;;;;;;5058478;28;20025;-67
2023/06/05 01:02:56;;;;;;;2.42;1.25;;;24.90;44.60;;;;;;5073442;28;20078;-67
2023/06/05 01:05:24;;;;;;;1.10;0.85;;;24.80;44.60;;;;;;5049395;28;20029;-67
2023/06/05 01:07:50;;;;;;;1.67;1.23;;;24.80;44.50;;;;;;5062528;28;20664;-68
2023/06/05 01:10:17;;;;;;;2.90;1.08;;;24.90;44.70;;;;;;5068228;28;20086;-67
2023/06/05 01:13:01;;;;;;;1.20;1.10;;;24.70;44.70;;;;;;5073937;28;20549;-67
2023/06/05 01:15:29;;;;;;;1.52;1.08;;;24.70;44.70;;;;;;5065111;28;20503;-67
2023/06/05 01:18:00;;;;;;;2.22;1.13;;;24.70;44.70;;;;;;5091119;28;20083;-67
2023/06/05 01:20:36;;;;;;;1.52;1.20;;;24.70;45.00;;;;;;5055727;28;20084;-68
2023/06/05 01:23:07;;;;;;;2.80;1.00;;;24.70;45.10;;;;;;5086667;28;20035;-68
2023/06/05 01:25:34;;;;;;;1.33;1.08;;;24.70;45.20;;;;;;5091100;28;20074;-67
2023/06/05 01:28:05;;;;;;;0.95;0.82;;;24.70;45.20;;;;;;5057252;28;20139;-67
2023/06/05 01:30:39;;;;;;;2.47;1.25;;;24.70;45.30;;;;;;5080643;28;20420;-68
2023/06/05 01:33:30;;;;;;;2.58;1.35;;;24.70;45.30;;;;;;5008265;28;20072;-67
2023/06/05 01:36:04;;;;;;;2.17;0.90;;;24.80;45.40;;;;;;4971301;28;20093;-67
2023/06/05 01:38:34;;;;;;;1.73;1.08;;;24.70;45.50;;;;;;4954780;28;20061;-67
2023/06/05 01:41:03;;;;;;;3.10;0.80;;;24.70;45.60;;;;;;4957423;28;20049;-67
2023/06/05 01:43:30;;;;;;;0.80;0.80;;;24.80;45.60;;;;;;4968971;28;20078;-67
2023/06/05 01:45:58;;;;;;;0.75;0.73;;;24.90;45.70;;;;;;4954366;28;20045;-67
2023/06/05 01:48:29;;;;;;;1.50;1.15;;;24.70;45.60;;;;;;4942435;28;20042;-67
2023/06/05 01:50:57;;;;;;;1.17;0.85;;;24.90;45.70;;;;;;4968323;28;20061;-68
2023/06/05 01:53:23;;;;;;;3.97;1.20;;;24.70;45.60;;;;;;4971507;28;20049;-67
2023/06/05 01:55:52;;;;;;;1.38;0.93;;;24.80;45.60;;;;;;4964508;28;20154;-68
2023/06/05 01:58:21;;;;;;;3.80;1.27;;;25.00;45.80;;;;;;4948405;28;20042;-67
2023/06/05 02:00:47;;;;;;;1.15;1.02;;;24.80;45.60;;;;;;4953369;28;20046;-68
2023/06/05 02:03:15;;;;;;;1.73;1.23;;;24.80;45.60;;;;;;4977013;28;20050;-67
2023/06/05 02:05:42;;;;;;;4.20;0.93;;;24.90;45.60;;;;;;5009730;28;20048;-67
2023/06/05 02:08:09;;;;;;;1.20;0.90;;;25.00;45.70;;;;;;5026156;28;20038;-67
2023/06/05 02:10:40;;;;;;;2.05;0.93;;;24.80;45.60;;;;;;5009735;28;20517;-66
2023/06/05 02:13:06;;;;;;;1.55;1.20;;;25.00;45.70;;;;;;5045064;28;20080;-67
2023/06/05 02:15:34;;;;;;;2.35;1.42;;;25.00;45.60;;;;;;5065413;28;20024;-68
2023/06/05 02:18:02;;;;;;;1.23;0.80;;;24.90;45.60;;;;;;5071228;28;20040;-67
2023/06/05 02:20:32;;;;;;;1.95;1.10;;;24.90;45.60;;;;;;5039925;28;20502;-67
2023/06/05 02:22:58;;;;;;;2.08;0.93;;;25.00;45.60;;;;;;5066216;28;20056;-67
2023/06/05 02:25:28;;;;;;;1.20;0.90;;;25.00;45.60;;;;;;5072661;28;20480;-68
2023/06/05 02:27:57;;;;;;;2.45;0.88;;;24.90;45.60;;;;;;5071122;28;20082;-67
2023/06/05 02:30:23;;;;;;;0.82;0.82;;;25.00;45.50;;;;;;5041031;28;20033;-67
2023/06/05 02:32:56;;;;;;;4.88;1.27;;;25.00;45.60;;;;;;5067039;28;20033;-67
2023/06/05 02:35:26;;;;;;;4.43;0.80;;;25.00;45.60;;;;;;5050884;28;20491;-68
2023/06/05 02:37:52;;;;;;;3.92;1.08;;;25.00;45.60;;;;;;5070128;28;20468;-68
2023/06/05 02:40:19;;;;;;;1.08;0.98;;;25.10;45.60;;;;;;5054004;28;20044;-68
2023/06/05 02:42:46;;;;;;;2.75;0.90;;;25.10;45.60;;;;;;5059118;28;20471;-68
2023/06/05 02:45:12;;;;;;;5.97;1.15;;;24.90;45.60;;;;;;5055803;28;20114;-68
2023/06/05 02:47:38;;;;;;;3.42;1.20;;;24.90;45.60;;;;;;5068570;28;20492;-68
2023/06/05 02:50:06;;;;;;;6.35;1.58;;;25.00;45.60;;;;;;5064819;28;20499;-68
2023/06/05 02:52:38;;;;;;;3.17;1.20;;;24.80;45.60;;;;;;5046308;28;20124;-67
2023/06/05 02:55:10;;;;;;;3.40;0.85;;;24.90;45.70;;;;;;5063532;28;20042;-67
2023/06/05 02:57:41;;;;;;;4.15;1.23;;;24.90;45.80;;;;;;5066539;28;20044;-67
2023/06/05 03:00:14;;;;;;;4.18;1.30;;;24.90;45.80;;;;;;5066161;28;20036;-67
2023/06/05 03:02:41;;;;;;;2.00;1.23;;;24.80;45.70;;;;;;5039717;28;20400;-67
2023/06/05 03:05:08;;;;;;;3.42;0.90;;;24.90;45.80;;;;;;5029661;28;20045;-67
2023/06/05 03:07:36;;;;;;;4.53;1.10;;;24.80;45.70;;;;;;5029145;28;20084;-68
2023/06/05 03:10:06;;;;;;;1.65;0.93;;;24.90;45.80;;;;;;5027233;28;20037;-67
2023/06/05 03:12:33;;;;;;;1.90;0.90;;;24.90;45.80;;;;;;5041575;28;20053;-68
2023/06/05 03:15:00;;;;;;;2.28;1.00;;;24.90;45.80;;;;;;5037924;28;20044;-68
2023/06/05 03:17:28;;;;;;;4.13;1.33;;;24.90;45.80;;;;;;5025875;28;20049;-68
2023/06/05 03:19:55;;;;;;;0.95;0.90;;;24.90;45.70;;;;;;5028645;28;20390;-67
2023/06/05 03:22:21;;;;;;;2.40;0.90;;;24.90;45.60;;;;;;5029215;28;20057;-67
2023/06/05 03:24:48;;;;;;;7.20;1.40;;;25.00;45.60;;;;;;5028921;28;20164;-67
2023/06/05 03:27:15;;;;;;;2.42;1.08;;;25.00;45.50;;;;;;5019856;28;20546;-67
2023/06/05 03:29:41;;;;;;;3.42;1.15;;;25.00;45.60;;;;;;5030932;28;20484;-68
2023/06/05 03:32:07;;;;;;;2.95;1.85;;;24.90;45.50;;;;;;5024407;28;20048;-67
2023/06/05 03:34:36;;;;;;;2.35;1.50;;;24.90;45.50;;;;;;5074975;28;20036;-67
2023/06/05 03:37:03;;;;;;;2.55;1.27;;;24.90;45.40;;;;;;5028686;28;20370;-68
2023/06/05 03:39:30;;;;;;;2.60;1.20;;;24.90;45.30;;;;;;5056218;28;20035;-68
2023/06/05 03:41:58;;;;;;;1.77;1.08;;;24.90;45.30;;;;;;5062489;28;20051;-67
2023/06/05 03:44:28;;;;;;;2.10;1.05;;;24.90;45.30;;;;;;5060067;28;20042;-68
2023/06/05 03:46:54;;;;;;;3.03;0.90;;;25.00;45.30;;;;;;5044808;28;20024;-68
2023/06/05 03:49:22;;;;;;;3.92;1.10;;;25.00;45.30;;;;;;5056365;28;20036;-68
2023/06/05 03:51:50;;;;;;;2.63;1.70;;;25.00;45.20;;;;;;5061861;28;20109;-68
2023/06/05 03:54:16;;;;;;;6.35;1.40;;;25.00;45.20;;;;;;5067650;28;20078;-67
2023/06/05 03:56:49;;;;;;;1.00;0.90;;;25.10;45.20;;;;;;5064967;28;20032;-67
2023/06/05 03:59:19;;;;;;;2.88;1.30;;;25.20;45.20;;;;;;5066753;28;20044;-67
2023/06/05 04:01:48;;;;;;;1.92;1.00;;;25.20;45.10;;;;;;5053784;28;20582;-67
2023/06/05 04:04:15;;;;;;;2.20;1.00;;;25.20;45.10;;;;;;5053539;28;20035;-67
2023/06/05 04:06:43;;;;;;;3.95;1.30;;;25.20;45.00;;;;;;5066786;28;20032;-68
2023/06/05 04:09:12;;;;;;;2.88;1.30;;;25.30;44.90;;;;;;5066926;28;20040;-67
2023/06/05 04:11:42;;;;;;;1.30;1.08;;;25.30;44.80;;;;;;5065662;28;20040;-68
2023/06/05 04:14:10;;;;;;;3.28;1.40;;;25.20;44.70;;;;;;5051204;28;20123;-67
2023/06/05 04:16:41;;;;;;;7.07;1.27;;;25.20;44.80;;;;;;5056843;28;20112;-67
2023/06/05 04:19:09;;;;;;;4.85;1.30;;;25.20;44.70;;;;;;5030342;28;20059;-67
2023/06/05 04:21:38;;;;;;;1.25;0.88;;;25.20;44.70;;;;;;5051349;28;20045;-67
2023/06/05 04:24:10;;;;;;;2.15;0.95;;;25.20;44.80;;;;;;5071487;28;20044;-68
2023/06/05 04:26:39;;;;;;;3.55;1.42;;;25.10;44.80;;;;;;5073876;28;20036;-67
2023/06/05 04:29:15;;;;;;;2.28;1.35;;;25.30;44.90;;;;;;5070342;28;20067;-68
2023/06/05 04:31:44;;;;;;;1.48;1.08;;;25.20;44.90;;;;;;5055904;28;20033;-66
2023/06/05 04:34:11;;;;;;;5.53;1.58;;;25.10;44.90;;;;;;5089142;28;20044;-67
2023/06/05 04:36:38;;;;;;;1.25;1.00;;;25.10;44.70;;;;;;5086662;28;20078;-68
2023/06/05 04:39:04;;;;;;;5.25;1.63;;;25.10;44.90;;;;;;5089489;28;20439;-67
2023/06/05 04:41:32;;;;;;;5.25;1.42;;;25.10;45.00;;;;;;5066718;28;20045;-68
2023/06/05 04:44:00;;;;;;;2.33;1.40;;;25.20;45.00;;;;;;5050107;28;20151;-68
2023/06/05 04:46:28;;;;;;;1.65;1.10;;;25.10;45.00;;;;;;5070686;28;20036;-68
2023/06/05 04:48:57;;;;;;;6.90;1.60;;;25.20;45.00;;;;;;5075134;28;20202;-68
2023/06/05 04:51:23;;;;;;;4.38;1.27;;;25.20;44.90;;;;;;5088140;28;20507;-67
2023/06/05 04:53:52;;;;;;;3.17;1.30;;;25.30;44.90;;;;;;5055090;28;20131;-68
2023/06/05 04:56:23;;;;;;;3.67;1.15;;;25.30;44.90;;;;;;5071525;28;20044;-67
2023/06/05 04:58:51;;;;;;;3.60;1.17;;;25.20;44.80;;;;;;5089501;28;20032;-67
2023/06/05 05:01:19;;;;;;;1.70;1.17;;;25.30;44.90;;;;;;5061514;28;21026;-67
2023/06/05 05:03:47;;;;;;;6.32;1.77;;;25.30;44.70;;;;;;5070754;28;20040;-67
2023/06/05 05:06:16;;;;;;;7.25;1.42;;;25.30;44.70;;;;;;5069088;28;20044;-67
2023/06/05 05:08:46;;;;;;;5.05;1.30;;;25.30;44.70;;;;;;5039489;28;20048;-67
2023/06/05 05:11:12;;;;;;;6.55;1.65;;;25.30;44.50;;;;;;5070735;28;20103;-67
2023/06/05 05:13:39;;;;;;;3.20;0.90;;;25.30;44.70;;;;;;5066234;28;20060;-68
2023/06/05 05:16:07;;;;;;;3.00;1.50;;;25.30;44.30;;;;;;5056202;28;20033;-67
2023/06/05 05:18:34;;;;;;;4.40;1.70;;;25.30;44.60;;;;;;5033890;28;20422;-67
2023/06/05 05:21:02;;;;;;;5.88;1.60;;;25.30;43.20;;;;;;5033503;28;20064;-67
2023/06/05 05:23:28;;;;;;;5.00;1.50;;;25.30;44.70;;;;;;5067886;28;20028;-66
2023/06/05 05:25:54;;;;;;;5.05;2.03;;;25.20;44.70;;;;;;5072491;28;20037;-68
2023/06/05 05:28:20;;;;;;;2.65;1.58;;;25.20;44.50;;;;;;5068571;28;20036;-69
2023/06/05 05:30:47;;;;;;;7.05;1.13;;;25.20;44.60;;;;;;5061031;28;20111;-67
2023/06/05 05:33:14;;;;;;;4.68;1.27;;;25.30;44.70;;;;;;5050387;28;20037;-67
2023/06/05 05:35:41;;;;;;;3.47;1.02;;;25.30;44.80;;;;;;5055888;28;20028;-67
2023/06/05 05:38:07;;;;;;;5.78;1.40;;;25.20;44.10;;;;;;5073447;28;20036;-67
2023/06/05 05:40:34;;;;;;;3.20;1.08;;;25.30;44.50;;;;;;5066648;28;20451;-67
2023/06/05 05:43:01;;;;;;;3.97;1.30;;;25.20;44.30;;;;;;5060663;28;20147;-67
2023/06/05 05:45:27;;;;;;;2.53;1.70;;;25.10;44.50;;;;;;5060947;28;20107;-67
2023/06/05 05:47:53;;;;;;;2.47;1.13;;;25.20;44.70;;;;;;5052322;28;20032;-67
2023/06/05 05:50:19;;;;;;;3.75;1.48;;;25.30;44.70;;;;;;5068089;28;20056;-67
2023/06/05 05:52:47;;;;;;;7.85;1.75;;;25.40;44.50;;;;;;5068682;28;20133;-67
2023/06/05 05:55:13;;;;;;;5.45;2.08;;;25.30;43.70;;;;;;5069123;28;20036;-67
2023/06/05 05:57:39;;;;;;;1.73;1.20;;;25.30;43.90;;;;;;5035251;28;20038;-67
2023/06/05 06:00:12;;;;;;;1.45;1.10;;;25.20;44.30;;;;;;5057262;28;20093;-67
2023/06/05 06:02:41;;;;;;;1.30;1.20;;;25.30;43.90;;;;;;5063087;28;20028;-67
2023/06/05 06:05:08;;;;;;;1.27;1.02;;;25.40;44.10;;;;;;5073203;28;20051;-68
2023/06/05 06:07:36;;;;;;;5.75;1.48;;;25.30;44.60;;;;;;5052657;28;20033;-67
2023/06/05 06:10:02;;;;;;;2.22;1.60;;;25.40;43.90;;;;;;5047900;28;20041;-67
2023/06/05 06:12:29;;;;;;;3.47;1.30;;;25.30;44.00;;;;;;5041068;28;20392;-67
2023/06/05 06:14:55;;;;;;;4.50;1.17;;;25.40;43.80;;;;;;5052794;28;20730;-67
2023/06/05 06:17:21;;;;;;;6.00;1.23;;;25.30;42.50;;;;;;5037246;28;20034;-67
2023/06/05 06:19:48;;;;;;;6.28;1.20;;;25.30;43.90;;;;;;5064192;28;20389;-71
2023/06/05 06:22:15;;;;;;;1.75;1.08;;;25.20;43.90;;;;;;5057626;28;20481;-70
2023/06/05 06:24:44;;;;;;;5.28;0.90;;;25.10;44.40;;;;;;5048060;28;20037;-70
2023/06/05 06:27:12;;;;;;;1.38;1.10;;;25.20;43.90;;;;;;5039897;28;20029;-70
2023/06/05 06:29:54;;;;;;;1.27;0.85;;;25.30;44.30;;;;;;5034675;28;20029;-71
2023/06/05 06:32:20;;;;;;;2.65;1.08;;;25.20;42.90;;;;;;5037657;28;20036;-70
2023/06/05 06:34:46;;;;;;;1.00;0.90;;;25.10;41.80;;;;;;5036229;28;20029;-70
2023/06/05 06:37:14;;;;;;;1.88;1.02;;;25.20;42.10;;;;;;5052164;28;20025;-69
2023/06/05 06:39:42;;;;;;;4.32;0.90;;;25.40;41.00;;;;;;5045175;28;20507;-70
2023/06/05 06:42:12;;;;;;;2.35;1.15;;;25.20;39.40;;;;;;5041834;28;20032;-70
2023/06/05 06:44:41;;;;;;;;;;;25.20;39.20;;;;;;5052632;28;20129;-69
2023/06/05 06:47:10;;;;;;;4.18;1.15;;;25.20;38.20;;;;;;5044833;28;19916;-70
2023/06/05 06:49:38;;;;;;;0.75;0.75;;;25.20;35.10;;;;;;5051673;28;20029;-70
2023/06/05 06:52:04;;;;;;;5.25;1.27;;;25.30;36.90;;;;;;5052528;28;20056;-70
2023/06/05 06:54:31;;;;;;;2.13;0.88;;;25.20;38.30;;;;;;5052087;28;20477;-71
2023/06/05 06:56:57;;;;;;;1.75;1.00;;;25.30;38.20;;;;;;5039645;28;20025;-74
2023/06/05 06:59:23;;;;;;;0.75;0.68;;;25.30;37.80;;;;;;5048690;28;20117;-74
2023/06/05 07:02:15;;;;;;;1.70;0.85;;;25.20;37.40;;;;;;5040858;28;20037;-73
2023/06/05 07:04:43;;;;;;;0.63;0.63;;;25.10;37.10;;;;;;5035058;28;20130;-73
2023/06/05 07:07:14;;;;;;;0.88;0.57;;;25.30;37.10;;;;;;5066425;28;20519;-73
2023/06/05 07:09:42;;;;;;;1.38;0.90;;;25.20;37.80;;;;;;5056455;28;20071;-73
2023/06/05 07:12:13;;;;;;;0.55;0.55;;;25.30;37.90;;;;;;5050566;28;20029;-73
2023/06/05 07:14:40;;;;;;;2.22;1.05;;;25.20;38.10;;;;;;5051671;28;20025;-73
2023/06/05 07:17:06;;;;;;;1.05;0.90;;;25.10;37.00;;;;;;5041483;28;20037;-73
2023/06/05 07:19:33;;;;;;;1.52;0.95;;;25.20;38.30;;;;;;5041761;28;20045;-73
2023/06/05 07:22:04;;;;;;;2.85;0.50;;;25.20;37.60;;;;;;5050254;28;20072;-68
2023/06/05 07:24:31;;;;;;;0.85;0.80;;;25.00;37.70;;;;;;5051144;28;20029;-69
2023/06/05 07:27:00;;;;;;;1.83;0.88;;;25.00;37.50;;;;;;5047734;28;20058;-69
2023/06/05 07:29:26;;;;;;;2.90;0.90;;;25.20;37.20;;;;;;5043764;28;20052;-66
2023/06/05 07:31:54;;;;;;;0.80;0.70;;;25.20;36.50;;;;;;5046767;28;20067;-67
2023/06/05 07:34:21;;;;;;;1.05;1.02;;;25.10;37.10;;;;;;5060283;28;20039;-67
2023/06/05 07:36:49;;;;;;;0.60;0.60;;;25.30;35.90;;;;;;5062791;28;20034;-67
2023/06/05 07:39:16;;;;;;;4.03;1.05;;;25.30;36.80;;;;;;5064230;28;20044;-67
2023/06/05 07:41:43;;;;;;;1.02;0.85;;;25.30;36.90;;;;;;5064561;28;20060;-66
2023/06/05 07:44:11;;;;;;;1.00;0.90;;;25.30;36.60;;;;;;5057361;28;20033;-66
2023/06/05 07:46:39;;;;;;;0.80;0.80;;;25.40;37.10;;;;;;5057150;28;20032;-67
2023/06/05 07:49:06;;;;;;;1.98;0.60;;;25.30;36.10;;;;;;5061257;28;20048;-68
2023/06/05 07:51:36;;;;;;;5.30;1.00;;;25.30;37.00;;;;;;5058396;28;20024;-66
2023/06/05 07:54:07;;;;;;;4.55;1.73;;;25.30;37.30;;;;;;5050790;28;20424;-67
2023/06/05 07:56:34;;;;;;;1.33;1.23;;;25.20;37.30;;;;;;5050427;28;20560;-66
2023/06/05 07:59:02;;;;;;;1.25;0.95;;;25.30;37.30;;;;;;5051177;28;20041;-67
2023/06/05 08:01:38;;;;;;;3.42;0.98;;;25.30;37.80;;;;;;5048818;28;20025;-67
2023/06/05 08:04:05;;;;;;;1.05;0.88;;;25.30;38.00;;;;;;5051295;28;20083;-67
2023/06/05 08:06:32;;;;;;;1.10;1.00;;;25.30;38.20;;;;;;5049657;28;20124;-67
2023/06/05 08:09:01;;;;;;;1.77;0.90;;;25.30;38.30;;;;;;5051113;28;20447;-67
2023/06/05 08:11:28;;;;;;;3.00;0.90;;;25.30;38.60;;;;;;5050679;28;20048;-67
2023/06/05 08:13:55;;;;;;;1.05;0.90;;;25.30;38.40;;;;;;5051123;28;20080;-67
2023/06/05 08:16:21;;;;;;;1.83;1.17;;;25.30;38.50;;;;;;5036121;28;20033;-67
2023/06/05 08:18:47;;;;;;;1.88;0.98;;;25.30;38.60;;;;;;5030933;28;20037;-67
2023/06/05 08:21:14;;;;;;;0.57;0.57;;;25.30;38.80;;;;;;5030587;28;20072;-67
2023/06/05 08:23:40;;;;;;;1.55;0.70;;;25.30;38.90;;;;;;5030986;28;20041;-67
2023/06/05 08:26:10;;;;;;;0.95;0.60;;;25.30;39.00;;;;;;5031452;28;20116;-66
2023/06/05 08:28:41;;;;;;;1.30;0.60;;;25.30;39.00;;;;;;5030901;28;20401;-67
2023/06/05 08:31:09;;;;;;;0.63;0.50;;;25.30;39.10;;;;;;5030034;28;20477;-67
2023/06/05 08:33:35;;;;;;;0.82;0.77;;;25.50;38.00;;;;;;5029454;28;20095;-67
2023/06/05 08:36:02;;;;;;;0.80;0.80;;;25.30;39.20;;;;;;5031878;28;20084;-67
2023/06/05 08:38:29;;;;;;;3.65;1.35;;;25.50;37.60;;;;;;5050508;28;20037;-66
2023/06/05 08:41:10;;;;;;;3.40;1.02;;;25.60;39.00;;;;;;5049682;28;20036;-66
2023/06/05 08:43:37;;;;;;;0.75;0.73;;;25.40;38.10;;;;;;5050121;28;20102;-66
2023/06/05 08:46:05;;;;;;;1.42;0.80;;;25.50;37.90;;;;;;5048461;28;20025;-67
2023/06/05 08:48:37;;;;;;;2.53;0.90;;;25.40;37.20;;;;;;5050409;28;20064;-67
2023/06/05 08:51:06;;;;;;;1.52;0.90;;;25.30;38.60;;;;;;5050102;28;20108;-67
2023/06/05 08:53:34;;;;;;;1.17;1.00;;;25.30;39.60;;;;;;5050293;28;20064;-67
2023/06/05 08:56:01;;;;;;;2.28;0.82;;;25.50;39.50;;;;;;5050246;28;20060;-68
2023/06/05 08:58:28;;;;;;;0.60;0.60;;;25.30;39.10;;;;;;5050036;28;20041;-67
2023/06/05 09:00:54;;;;;;;0.77;0.73;;;25.40;39.80;;;;;;5048573;28;20056;-67
2023/06/05 09:03:20;;;;;;;3.17;0.85;;;25.30;39.90;;;;;;5050281;28;20084;-66
2023/06/05 09:05:49;;;;;;;1.17;0.82;;;25.30;37.60;;;;;;5050683;28;20033;-67
2023/06/05 09:08:28;;;;;;;1.08;1.00;;;25.50;39.80;;;;;;5083461;28;20365;-67
2023/06/05 09:10:54;;;;;;;1.08;0.75;;;25.30;39.60;;;;;;5053554;28;20032;-67
2023/06/05 09:13:22;;;;;;;2.95;0.70;;;25.30;39.40;;;;;;5053840;28;20033;-66
2023/06/05 09:15:50;;;;;;;2.40;0.90;;;25.50;40.10;;;;;;5036471;28;20041;-66
2023/06/05 09:18:16;;;;;;;1.15;1.08;;;25.30;36.20;;;;;;5049422;28;20090;-66
2023/06/05 09:20:47;;;;;;;2.17;0.93;;;25.30;39.80;;;;;;5051923;28;20489;-67
2023/06/05 09:23:28;;;;;;;1.63;0.70;;;25.40;40.20;;;;;;5053363;28;20072;-66
2023/06/05 09:25:56;;;;;;;1.77;0.80;;;25.40;39.00;;;;;;5051988;28;20056;-67
2023/06/05 09:28:23;;;;;;;3.38;0.70;;;25.40;38.00;;;;;;5052825;28;20033;-67
2023/06/05 09:30:59;;;;;;;1.60;0.70;;;25.40;40.10;;;;;;5038914;28;20042;-67
2023/06/05 09:33:28;;;;;;;3.78;0.77;;;25.50;40.30;;;;;;5033585;28;20029;-67
2023/06/05 09:36:08;;;;;;;4.13;0.82;;;25.40;40.40;;;;;;5033475;28;20087;-67
2023/06/05 09:38:34;;;;;;;3.83;0.70;;;25.40;40.30;;;;;;5033800;28;20029;-67
2023/06/05 09:41:05;;;;;;;3.05;0.80;;;25.40;40.50;;;;;;5032172;28;20038;-67
2023/06/05 09:43:31;;;;;;;1.13;0.70;;;25.40;40.60;;;;;;5033844;28;20417;-67
2023/06/05 09:45:57;;;;;;;1.65;1.00;;;25.30;39.40;;;;;;5053339;28;20036;-67
2023/06/05 09:48:25;;;;;;;2.38;0.55;;;25.40;40.50;;;;;;5053572;28;20111;-67
2023/06/05 09:50:52;;;;;;;2.55;0.80;;;25.30;40.60;;;;;;5053322;28;20065;-67
2023/06/05 09:53:21;;;;;;;3.38;0.90;;;25.40;40.70;;;;;;5053413;28;20041;-66
2023/06/05 09:55:47;;;;;;;1.83;0.82;;;25.30;39.60;;;;;;5051953;28;20043;-67
2023/06/05 09:58:15;;;;;;;1.08;0.90;;;25.40;40.60;;;;;;5050976;28;20029;-67
2023/06/05 10:00:42;;;;;;;6.25;1.00;;;25.30;40.80;;;;;;5032838;28;20032;-67
2023/06/05 10:03:15;;;;;;;0.80;0.65;;;25.40;40.70;;;;;;5031658;28;20363;-67
2023/06/05 10:05:43;;;;;;;1.17;0.70;;;25.40;40.80;;;;;;5032008;28;20072;-67
2023/06/05 10:08:13;;;;;;;1.73;1.25;;;25.30;40.90;;;;;;5033191;28;20037;-67
2023/06/05 10:10:39;;;;;;;1.00;0.82;;;25.30;40.90;;;;;;5032928;28;20053;-67
2023/06/05 10:13:06;;;;;;;0.70;0.70;;;25.40;41.00;;;;;;5033003;28;20041;-68
2023/06/05 10:15:33;;;;;;;0.90;0.80;;;25.30;41.00;;;;;;5051220;28;20035;-67
2023/06/05 10:18:00;;;;;;;0.60;0.60;;;25.40;41.10;;;;;;5052756;28;20060;-67
2023/06/05 10:20:27;;;;;;;4.13;1.00;;;25.30;41.10;;;;;;5051847;28;20505;-67
2023/06/05 10:22:54;;;;;;;1.75;1.00;;;25.40;41.00;;;;;;5052880;28;20045;-67
2023/06/05 10:25:21;;;;;;;0.82;0.70;;;25.30;39.70;;;;;;5052753;28;20112;-67
2023/06/05 10:28:15;;;;;;;2.28;0.70;;;25.40;40.20;;;;;;5052469;28;20060;-67
2023/06/05 10:31:13;;;;;;;3.55;0.80;;;25.40;38.10;;;;;;5032465;28;20453;-67
2023/06/05 10:34:22;;;;;;;0.60;0.60;;;25.40;38.30;;;;;;5032768;28;20036;-67
2023/06/05 10:36:57;;;;;;;4.10;1.35;;;25.40;39.70;;;;;;5058077;28;20037;-67
2023/06/05 10:39:25;;;;;;;0.85;0.77;;;25.30;41.00;;;;;;5069766;28;20040;-67
2023/06/05 10:41:51;;;;;;;0.98;0.80;;;25.30;41.20;;;;;;5069700;28;20041;-67
2023/06/05 10:44:17;;;;;;;0.95;0.80;;;25.40;39.60;;;;;;5056486;28;20045;-67
2023/06/05 10:46:44;;;;;;;0.60;0.60;;;25.40;39.10;;;;;;5054800;28;20048;-67
2023/06/05 10:49:17;;;;;;;1.13;0.50;;;25.30;39.80;;;;;;5056004;28;20028;-66
2023/06/05 10:51:53;;;;;;;1.00;0.80;;;25.30;41.10;;;;;;5061740;28;20040;-68
2023/06/05 10:54:22;;;;;;;0.60;0.60;;;25.30;41.30;;;;;;5062195;28;20029;-67
2023/06/05 10:56:53;;;;;;;2.92;0.63;;;25.30;41.40;;;;;;5066687;28;20052;-67
2023/06/05 10:59:21;;;;;;;0.65;0.63;;;25.30;41.50;;;;;;5067583;28;20378;-66
2023/06/05 11:02:12;;;;;;;1.48;0.80;;;25.40;41.60;;;;;;5069348;28;20036;-67
2023/06/05 11:04:47;;;;;;;1.30;0.85;;;25.40;41.50;;;;;;4974392;28;20109;-67
2023/06/05 11:07:16;;;;;;;1.77;0.80;;;25.20;40.50;;;;;;4971395;28;20035;-67
2023/06/05 11:10:10;;;;;;;1.30;0.88;;;25.40;41.60;;;;;;4981613;28;20070;-67
2023/06/05 11:12:39;;;;;;;1.15;0.75;;;25.30;41.80;;;;;;4961386;28;20077;-67
2023/06/05 11:15:12;;;;;;;1.98;0.75;;;25.40;39.10;;;;;;4974514;28;20545;-67
2023/06/05 11:17:40;;;;;;;0.93;0.75;;;25.30;42.20;;;;;;4970949;28;20534;-66
2023/06/05 11:20:09;;;;;;;3.40;1.30;;;25.50;44.70;;;;;;4970178;28;20538;-67
2023/06/05 11:22:57;;;;;;;2.38;1.13;;;25.40;44.80;;;;;;4970240;28;20070;-67
2023/06/05 11:25:32;;;;;;;3.08;1.25;;;25.40;44.70;;;;;;4973356;28;20116;-67
2023/06/05 11:28:01;;;;;;;2.25;1.10;;;25.50;39.50;;;;;;4988804;28;20476;-68
2023/06/05 11:30:34;;;;;;;1.45;1.02;;;25.70;40.20;;;;;;4989680;28;20046;-67
2023/06/05 11:33:08;;;;;;;1.73;0.95;;;25.80;39.50;;;;;;4989668;28;20082;-67
2023/06/05 11:35:35;;;;;;;0.90;0.80;;;25.90;39.40;;;;;;4969981;28;20486;-68
2023/06/05 11:38:14;;;;;;;2.75;1.25;;;25.80;40.00;;;;;;4993586;28;20563;-67
2023/06/05 11:40:41;;;;;;;3.15;0.80;;;25.90;37.20;;;;;;5008310;28;20049;-67
2023/06/05 11:43:15;;;;;;;2.80;1.20;;;26.00;37.70;;;;;;5038048;28;20045;-67
2023/06/05 11:45:48;;;;;;;1.05;0.80;;;25.80;37.50;;;;;;5049826;28;20037;-67
2023/06/05 11:48:14;;;;;;;1.20;1.10;;;25.80;36.60;;;;;;5049910;28;20044;-67
2023/06/05 11:50:59;;;;;;;0.90;0.90;;;25.80;35.70;;;;;;5049837;28;20059;-68
2023/06/05 11:53:26;;;;;;;1.00;0.80;;;25.90;35.90;;;;;;5051052;28;20473;-68
2023/06/05 11:55:55;;;;;;;0.90;0.90;;;25.90;35.90;;;;;;5051405;28;20092;-67
2023/06/05 11:58:25;;;;;;;1.00;0.90;;;26.00;36.70;;;;;;5050094;28;20048;-67
2023/06/05 12:00:52;;;;;;;2.30;0.75;;;25.90;39.00;;;;;;5050870;28;20048;-69
2023/06/05 12:03:21;;;;;;;1.02;0.73;;;25.90;39.60;;;;;;5051006;28;20033;-67
2023/06/05 12:05:48;;;;;;;0.63;0.63;;;25.80;38.80;;;;;;5050889;28;20039;-67
2023/06/05 12:08:30;;;;;;;1.48;0.60;;;26.00;39.80;;;;;;5039139;28;20041;-68
2023/06/05 12:10:56;;;;;;;1.08;0.90;;;25.90;40.10;;;;;;5030832;28;20030;-68
2023/06/05 12:13:22;;;;;;;1.15;0.88;;;26.00;40.90;;;;;;5030668;28;20061;-67
2023/06/05 12:16:06;;;;;;;4.47;1.15;;;26.00;40.20;;;;;;5056602;28;20380;-68
2023/06/05 12:18:33;;;;;;;1.17;0.82;;;26.00;41.00;;;;;;5069644;28;20028;-67
2023/06/05 12:21:00;;;;;;;0.88;0.77;;;26.00;41.10;;;;;;5070798;28;20048;-68
2023/06/05 12:23:30;;;;;;;1.38;1.00;;;26.00;40.70;;;;;;5071068;28;20044;-68
2023/06/05 12:26:03;;;;;;;1.08;0.70;;;25.90;40.90;;;;;;5070785;28;20484;-67
2023/06/05 12:28:31;;;;;;;3.30;0.77;;;25.90;41.00;;;;;;5051193;28;20040;-67
2023/06/05 12:30:58;;;;;;;2.03;0.75;;;25.90;41.10;;;;;;5050824;28;20075;-68
2023/06/05 12:33:24;;;;;;;0.68;0.68;;;25.90;41.30;;;;;;5051270;28;20037;-68
2023/06/05 12:36:10;;;;;;;2.30;1.00;;;25.90;41.10;;;;;;5050780;28;20040;-67
2023/06/05 12:38:40;;;;;;;0.80;0.80;;;25.80;39.40;;;;;;5050859;28;20071;-67
2023/06/05 12:41:07;;;;;;;2.33;0.95;;;25.90;41.20;;;;;;5050406;28;20040;-68
2023/06/05 12:43:36;;;;;;;4.25;0.75;;;25.90;39.70;;;;;;5032288;28;20445;-67
2023/06/05 12:46:03;;;;;;;2.28;1.08;;;25.70;41.10;;;;;;5052540;28;20087;-68
2023/06/05 12:48:29;;;;;;;0.75;0.70;;;25.70;40.40;;;;;;5056169;28;20113;-67
2023/06/05 12:50:56;;;;;;;4.85;0.95;;;25.70;41.20;;;;;;5054363;28;20487;-67
2023/06/05 12:53:22;;;;;;;3.42;1.08;;;25.80;41.10;;;;;;5054182;28;20106;-68
2023/06/05 12:55:48;;;;;;;3.17;0.80;;;25.80;41.10;;;;;;5054294;28;20021;-68
2023/06/05 12:58:14;;;;;;;1.10;0.95;;;25.70;40.50;;;;;;5052623;28;20029;-67